Arctic Village, Alaska
Current Conditions -  °F | °C
As of 2:16 AM on Friday 24 Oct 2014 (Local Time) from PFYU Reporting Station
Overcast Overcast  
Wind Chill: -11°   Ceiling: 2000
Heat Index: -11°   Visibility: 4mi
Dew Point: -13°   Wind: 0mph
Humidity: 85%   Direction: NA
Pressure: 29.84"   Gusts: NA
Location:  68.13°N, 145.54°W
Report Text: PFYU 241016Z 00000KT 4SM SCT013 BKN020 OVC027 M11/M13 A2984 RMK AO1
Loading
Personal Weather Stations






























Interactive Weather Map
Tropical Storm Tracking
New forecast layout! Learn more

10-Day Weather Forecast

Advertisements
Track Severe Weather on mobile